sensor_id;sensor_type;location;lat;lon;timestamp;pressure;altitude;pressure_sealevel;temperature;humidity
38225;BME280;24025;48.138;11.428;2023-08-21T00:00:20;96049.44;;;23.26;62.98
38225;BME280;24025;48.138;11.428;2023-08-21T00:02:51;96040.06;;;23.27;62.33
38225;BME280;24025;48.138;11.428;2023-08-21T00:05:23;96040.19;;;23.24;62.80
38225;BME280;24025;48.138;11.428;2023-08-21T00:07:54;96045.94;;;23.26;62.64
38225;BME280;24025;48.138;11.428;2023-08-21T00:10:25;96049.00;;;23.28;62.72
38225;BME280;24025;48.138;11.428;2023-08-21T00:12:57;96034.38;;;23.22;62.95
38225;BME280;24025;48.138;11.428;2023-08-21T00:15:29;96038.84;;;23.15;62.79
38225;BME280;24025;48.138;11.428;2023-08-21T00:18:00;96028.16;;;23.08;63.35
38225;BME280;24025;48.138;11.428;2023-08-21T00:20:32;96029.34;;;23.07;63.22
38225;BME280;24025;48.138;11.428;2023-08-21T00:23:03;96040.25;;;23.07;62.89
38225;BME280;24025;48.138;11.428;2023-08-21T00:25:35;96043.91;;;23.01;63.60
38225;BME280;24025;48.138;11.428;2023-08-21T00:28:06;96035.31;;;23.02;62.71
38225;BME280;24025;48.138;11.428;2023-08-21T00:30:38;96037.38;;;22.98;62.65
38225;BME280;24025;48.138;11.428;2023-08-21T00:33:09;96032.47;;;22.93;63.04
38225;BME280;24025;48.138;11.428;2023-08-21T00:35:41;96030.25;;;22.88;63.57
38225;BME280;24025;48.138;11.428;2023-08-21T00:38:13;96039.84;;;22.93;62.80
38225;BME280;24025;48.138;11.428;2023-08-21T00:40:44;96033.03;;;22.72;63.86
38225;BME280;24025;48.138;11.428;2023-08-21T00:43:16;96035.66;;;22.59;63.83
38225;BME280;24025;48.138;11.428;2023-08-21T00:45:48;96038.97;;;22.67;63.67
38225;BME280;24025;48.138;11.428;2023-08-21T00:48:20;96034.72;;;22.66;63.37
38225;BME280;24025;48.138;11.428;2023-08-21T00:50:52;96035.22;;;22.60;64.28
38225;BME280;24025;48.138;11.428;2023-08-21T00:53:24;96031.84;;;22.56;64.00
38225;BME280;24025;48.138;11.428;2023-08-21T00:55:56;96027.94;;;22.57;64.10
38225;BME280;24025;48.138;11.428;2023-08-21T00:58:27;96029.56;;;22.55;64.12
38225;BME280;24025;48.138;11.428;2023-08-21T01:00:59;96030.00;;;22.53;63.94
38225;BME280;24025;48.138;11.428;2023-08-21T01:03:30;96031.69;;;22.47;63.56
38225;BME280;24025;48.138;11.428;2023-08-21T01:06:02;96027.03;;;22.48;63.67
38225;BME280;24025;48.138;11.428;2023-08-21T01:11:14;96028.06;;;22.38;63.79
38225;BME280;24025;48.138;11.428;2023-08-21T01:16:39;96030.19;;;22.30;64.03
38225;BME280;24025;48.138;11.428;2023-08-21T01:19:15;96023.25;;;22.29;63.96
38225;BME280;24025;48.138;11.428;2023-08-21T01:21:50;96023.31;;;22.25;63.90
38225;BME280;24025;48.138;11.428;2023-08-21T01:24:21;96025.97;;;22.29;63.72
38225;BME280;24025;48.138;11.428;2023-08-21T01:26:53;96024.44;;;22.28;64.16
38225;BME280;24025;48.138;11.428;2023-08-21T01:29:24;96028.69;;;22.29;64.07
38225;BME280;24025;48.138;11.428;2023-08-21T01:34:28;96024.94;;;22.23;64.78
38225;BME280;24025;48.138;11.428;2023-08-21T01:37:00;96030.38;;;22.23;64.70
38225;BME280;24025;48.138;11.428;2023-08-21T01:39:32;96028.84;;;22.22;64.47
38225;BME280;24025;48.138;11.428;2023-08-21T01:42:04;96026.22;;;22.18;64.48
38225;BME280;24025;48.138;11.428;2023-08-21T01:44:36;96032.41;;;22.19;64.55
38225;BME280;24025;48.138;11.428;2023-08-21T01:47:07;96030.09;;;22.17;64.42
38225;BME280;24025;48.138;11.428;2023-08-21T01:49:39;96027.81;;;22.16;64.87
38225;BME280;24025;48.138;11.428;2023-08-21T01:52:10;96035.22;;;22.15;65.08
38225;BME280;24025;48.138;11.428;2023-08-21T01:54:42;96031.41;;;22.13;64.88
38225;BME280;24025;48.138;11.428;2023-08-21T01:57:13;96028.69;;;22.13;64.31
38225;BME280;24025;48.138;11.428;2023-08-21T01:59:45;96030.34;;;22.06;65.34
38225;BME280;24025;48.138;11.428;2023-08-21T02:02:16;96030.72;;;22.09;64.89
38225;BME280;24025;48.138;11.428;2023-08-21T02:04:47;96029.53;;;22.10;64.40
38225;BME280;24025;48.138;11.428;2023-08-21T02:07:19;96026.47;;;22.08;64.44
38225;BME280;24025;48.138;11.428;2023-08-21T02:09:50;96026.88;;;22.06;64.68
38225;BME280;24025;48.138;11.428;2023-08-21T02:12:22;96027.72;;;22.03;64.70
38225;BME280;24025;48.138;11.428;2023-08-21T02:14:53;96028.97;;;21.98;64.81
38225;BME280;24025;48.138;11.428;2023-08-21T02:17:27;96031.69;;;21.98;65.26
38225;BME280;24025;48.138;11.428;2023-08-21T02:19:59;96030.50;;;21.99;65.19
38225;BME280;24025;48.138;11.428;2023-08-21T02:22:30;96035.19;;;21.99;64.65
38225;BME280;24025;48.138;11.428;2023-08-21T02:25:01;96032.22;;;21.93;64.71
38225;BME280;24025;48.138;11.428;2023-08-21T02:27:34;96032.22;;;21.93;64.68
38225;BME280;24025;48.138;11.428;2023-08-21T02:30:05;96028.38;;;21.91;64.98
38225;BME280;24025;48.138;11.428;2023-08-21T02:32:38;96030.00;;;21.88;65.33
38225;BME280;24025;48.138;11.428;2023-08-21T02:35:11;96023.47;;;21.86;64.90
38225;BME280;24025;48.138;11.428;2023-08-21T02:37:43;96025.84;;;21.84;65.26
38225;BME280;24025;48.138;11.428;2023-08-21T02:40:14;96027.53;;;21.77;65.19
38225;BME280;24025;48.138;11.428;2023-08-21T02:42:46;96023.34;;;21.73;65.33
38225;BME280;24025;48.138;11.428;2023-08-21T02:45:17;96020.84;;;21.66;66.22
38225;BME280;24025;48.138;11.428;2023-08-21T02:47:50;96023.59;;;21.62;66.52
38225;BME280;24025;48.138;11.428;2023-08-21T02:50:21;96029.78;;;21.63;66.50
38225;BME280;24025;48.138;11.428;2023-08-21T02:52:53;96029.13;;;21.59;66.81
38225;BME280;24025;48.138;11.428;2023-08-21T02:55:24;96032.31;;;21.54;67.00
38225;BME280;24025;48.138;11.428;2023-08-21T02:57:56;96032.00;;;21.52;66.99
38225;BME280;24025;48.138;11.428;2023-08-21T03:00:27;96040.84;;;21.56;66.28
38225;BME280;24025;48.138;11.428;2023-08-21T03:02:58;96038.03;;;21.59;66.41
38225;BME280;24025;48.138;11.428;2023-08-21T03:05:30;96040.75;;;21.59;66.12
38225;BME280;24025;48.138;11.428;2023-08-21T03:08:02;96036.66;;;21.51;67.19
38225;BME280;24025;48.138;11.428;2023-08-21T03:10:33;96044.03;;;21.51;67.02
38225;BME280;24025;48.138;11.428;2023-08-21T03:13:05;96047.59;;;21.47;67.29
38225;BME280;24025;48.138;11.428;2023-08-21T03:15:36;96038.00;;;21.43;67.32
38225;BME280;24025;48.138;11.428;2023-08-21T03:18:08;96042.75;;;21.39;67.44
38225;BME280;24025;48.138;11.428;2023-08-21T03:20:46;96047.03;;;21.36;67.41
38225;BME280;24025;48.138;11.428;2023-08-21T03:23:17;96044.06;;;21.31;67.70
38225;BME280;24025;48.138;11.428;2023-08-21T03:25:51;96045.25;;;21.30;67.88
38225;BME280;24025;48.138;11.428;2023-08-21T03:28:23;96049.13;;;21.29;67.43
38225;BME280;24025;48.138;11.428;2023-08-21T03:30:54;96051.50;;;21.27;68.04
38225;BME280;24025;48.138;11.428;2023-08-21T03:33:26;96044.25;;;21.20;68.10
38225;BME280;24025;48.138;11.428;2023-08-21T03:35:57;96054.31;;;21.19;68.26
38225;BME280;24025;48.138;11.428;2023-08-21T03:38:29;96054.75;;;21.18;67.67
38225;BME280;24025;48.138;11.428;2023-08-21T03:41:00;96050.47;;;21.20;67.73
38225;BME280;24025;48.138;11.428;2023-08-21T03:43:32;96060.19;;;21.18;68.34
38225;BME280;24025;48.138;11.428;2023-08-21T03:46:03;96062.22;;;21.14;68.39
38225;BME280;24025;48.138;11.428;2023-08-21T03:48:35;96060.31;;;21.11;68.79
38225;BME280;24025;48.138;11.428;2023-08-21T03:51:06;96062.69;;;21.09;68.68
38225;BME280;24025;48.138;11.428;2023-08-21T03:53:37;96066.66;;;21.04;68.75
38225;BME280;24025;48.138;11.428;2023-08-21T03:56:09;96056.22;;;21.03;68.94
38225;BME280;24025;48.138;11.428;2023-08-21T03:58:40;96064.50;;;20.96;68.93
38225;BME280;24025;48.138;11.428;2023-08-21T04:01:12;96069.22;;;20.91;69.13
38225;BME280;24025;48.138;11.428;2023-08-21T04:03:43;96059.88;;;20.92;69.06
38225;BME280;24025;48.138;11.428;2023-08-21T04:06:15;96064.22;;;20.90;69.35
38225;BME280;24025;48.138;11.428;2023-08-21T04:08:46;96060.44;;;20.84;69.63
38225;BME280;24025;48.138;11.428;2023-08-21T04:11:17;96065.59;;;20.78;69.23
38225;BME280;24025;48.138;11.428;2023-08-21T04:13:49;96064.53;;;20.72;69.83
38225;BME280;24025;48.138;11.428;2023-08-21T04:16:21;96068.13;;;20.65;70.25
38225;BME280;24025;48.138;11.428;2023-08-21T04:18:52;96066.19;;;20.66;70.38
38225;BME280;24025;48.138;11.428;2023-08-21T04:21:24;96067.09;;;20.59;70.96
38225;BME280;24025;48.138;11.428;2023-08-21T04:23:56;96060.91;;;20.59;70.65
38225;BME280;24025;48.138;11.428;2023-08-21T04:26:27;96067.91;;;20.56;71.40
38225;BME280;24025;48.138;11.428;2023-08-21T04:28:58;96072.22;;;20.54;71.58
38225;BME280;24025;48.138;11.428;2023-08-21T04:31:30;96062.91;;;20.55;71.57
38225;BME280;24025;48.138;11.428;2023-08-21T04:34:01;96068.22;;;20.62;71.36
38225;BME280;24025;48.138;11.428;2023-08-21T04:36:33;96069.72;;;20.63;70.67
38225;BME280;24025;48.138;11.428;2023-08-21T04:39:04;96067.03;;;20.63;71.42
38225;BME280;24025;48.138;11.428;2023-08-21T04:41:36;96072.44;;;20.63;71.87
38225;BME280;24025;48.138;11.428;2023-08-21T04:44:07;96075.50;;;20.65;71.18
38225;BME280;24025;48.138;11.428;2023-08-21T04:46:39;96071.97;;;20.68;71.85
38225;BME280;24025;48.138;11.428;2023-08-21T04:49:10;96079.19;;;20.75;71.16
38225;BME280;24025;48.138;11.428;2023-08-21T04:51:42;96071.81;;;20.75;71.55
38225;BME280;24025;48.138;11.428;2023-08-21T04:54:13;96078.31;;;20.81;70.93
38225;BME280;24025;48.138;11.428;2023-08-21T04:56:45;96077.34;;;20.91;70.32
38225;BME280;24025;48.138;11.428;2023-08-21T04:59:17;96083.91;;;20.94;70.66
38225;BME280;24025;48.138;11.428;2023-08-21T05:01:48;96084.16;;;21.00;71.26
38225;BME280;24025;48.138;11.428;2023-08-21T05:04:20;96083.28;;;21.06;70.73
38225;BME280;24025;48.138;11.428;2023-08-21T05:06:51;96084.03;;;21.07;70.95
38225;BME280;24025;48.138;11.428;2023-08-21T05:09:22;96080.47;;;21.10;71.06
38225;BME280;24025;48.138;11.428;2023-08-21T05:11:54;96086.31;;;21.08;71.27
38225;BME280;24025;48.138;11.428;2023-08-21T05:14:26;96082.38;;;21.13;70.58
38225;BME280;24025;48.138;11.428;2023-08-21T05:16:58;96088.00;;;21.22;70.39
38225;BME280;24025;48.138;11.428;2023-08-21T05:19:30;96090.66;;;21.26;71.33
38225;BME280;24025;48.138;11.428;2023-08-21T05:22:01;96080.09;;;21.31;71.24
38225;BME280;24025;48.138;11.428;2023-08-21T05:24:33;96087.75;;;21.36;70.77
38225;BME280;24025;48.138;11.428;2023-08-21T05:27:04;96090.03;;;21.38;70.34
38225;BME280;24025;48.138;11.428;2023-08-21T05:29:35;96088.03;;;21.42;70.12
38225;BME280;24025;48.138;11.428;2023-08-21T05:32:07;96091.59;;;21.39;70.52
38225;BME280;24025;48.138;11.428;2023-08-21T05:34:39;96090.31;;;21.43;70.28
38225;BME280;24025;48.138;11.428;2023-08-21T05:37:10;96094.22;;;21.42;70.02
38225;BME280;24025;48.138;11.428;2023-08-21T05:39:41;96093.31;;;21.49;69.92
38225;BME280;24025;48.138;11.428;2023-08-21T05:42:13;96087.47;;;21.51;69.79
38225;BME280;24025;48.138;11.428;2023-08-21T05:44:44;96093.50;;;21.58;68.97
38225;BME280;24025;48.138;11.428;2023-08-21T05:47:16;96103.78;;;21.67;68.88
38225;BME280;24025;48.138;11.428;2023-08-21T05:49:47;96090.91;;;21.71;68.28
38225;BME280;24025;48.138;11.428;2023-08-21T05:52:20;96086.44;;;21.97;67.62
38225;BME280;24025;48.138;11.428;2023-08-21T05:54:52;96089.38;;;22.39;65.86
38225;BME280;24025;48.138;11.428;2023-08-21T05:57:23;96095.41;;;22.63;64.57
38225;BME280;24025;48.138;11.428;2023-08-21T05:59:55;96095.47;;;22.92;62.78
38225;BME280;24025;48.138;11.428;2023-08-21T06:02:26;96094.16;;;22.96;62.88
38225;BME280;24025;48.138;11.428;2023-08-21T06:04:57;96102.31;;;22.96;63.16
38225;BME280;24025;48.138;11.428;2023-08-21T06:07:29;96102.94;;;22.87;62.82
38225;BME280;24025;48.138;11.428;2023-08-21T06:10:00;96099.44;;;22.87;62.83
38225;BME280;24025;48.138;11.428;2023-08-21T06:12:32;96106.16;;;22.82;63.05
38225;BME280;24025;48.138;11.428;2023-08-21T06:15:03;96106.19;;;22.66;63.24
38225;BME280;24025;48.138;11.428;2023-08-21T06:17:35;96102.84;;;22.75;63.03
38225;BME280;24025;48.138;11.428;2023-08-21T06:20:06;96112.03;;;22.81;62.91
38225;BME280;24025;48.138;11.428;2023-08-21T06:22:40;96111.97;;;22.84;62.91
38225;BME280;24025;48.138;11.428;2023-08-21T06:25:11;96106.63;;;22.65;63.02
38225;BME280;24025;48.138;11.428;2023-08-21T06:27:43;96112.38;;;22.67;63.38
38225;BME280;24025;48.138;11.428;2023-08-21T06:30:29;96116.88;;;22.73;62.92
38225;BME280;24025;48.138;11.428;2023-08-21T06:33:00;96117.72;;;22.70;63.76
38225;BME280;24025;48.138;11.428;2023-08-21T06:35:31;96113.72;;;22.75;63.73
38225;BME280;24025;48.138;11.428;2023-08-21T06:38:03;96118.09;;;22.88;63.35
38225;BME280;24025;48.138;11.428;2023-08-21T06:40:35;96116.69;;;22.97;63.18
38225;BME280;24025;48.138;11.428;2023-08-21T06:43:06;96111.59;;;22.99;63.03
38225;BME280;24025;48.138;11.428;2023-08-21T06:45:38;96112.06;;;23.10;62.61
38225;BME280;24025;48.138;11.428;2023-08-21T06:48:09;96116.22;;;23.14;62.67
38225;BME280;24025;48.138;11.428;2023-08-21T06:50:41;96110.25;;;23.20;62.89
38225;BME280;24025;48.138;11.428;2023-08-21T06:53:12;96111.47;;;23.31;62.22
38225;BME280;24025;48.138;11.428;2023-08-21T06:55:45;96113.13;;;23.29;62.57
38225;BME280;24025;48.138;11.428;2023-08-21T06:58:17;96114.25;;;23.44;61.90
38225;BME280;24025;48.138;11.428;2023-08-21T07:00:49;96118.19;;;23.56;61.48
38225;BME280;24025;48.138;11.428;2023-08-21T07:03:20;96112.75;;;23.56;61.88
38225;BME280;24025;48.138;11.428;2023-08-21T07:05:56;96116.28;;;23.69;60.99
38225;BME280;24025;48.138;11.428;2023-08-21T07:08:28;96116.94;;;23.73;60.75
38225;BME280;24025;48.138;11.428;2023-08-21T07:11:01;96113.91;;;23.84;60.50
38225;BME280;24025;48.138;11.428;2023-08-21T07:13:34;96121.00;;;23.94;60.67
38225;BME280;24025;48.138;11.428;2023-08-21T07:16:05;96120.25;;;24.06;60.11
38225;BME280;24025;48.138;11.428;2023-08-21T07:18:38;96122.41;;;24.11;59.93
38225;BME280;24025;48.138;11.428;2023-08-21T07:21:10;96131.56;;;24.17;59.47
38225;BME280;24025;48.138;11.428;2023-08-21T07:24:02;96131.25;;;24.28;59.41
38225;BME280;24025;48.138;11.428;2023-08-21T07:26:37;96125.50;;;24.39;59.62
38225;BME280;24025;48.138;11.428;2023-08-21T07:29:09;96123.94;;;24.38;58.96
38225;BME280;24025;48.138;11.428;2023-08-21T07:31:40;96120.47;;;24.50;58.69
38225;BME280;24025;48.138;11.428;2023-08-21T07:34:12;96119.66;;;24.62;58.88
38225;BME280;24025;48.138;11.428;2023-08-21T07:36:43;96121.72;;;24.71;58.18
38225;BME280;24025;48.138;11.428;2023-08-21T07:39:15;96115.94;;;24.69;57.42
38225;BME280;24025;48.138;11.428;2023-08-21T07:41:47;96119.41;;;24.82;57.18
38225;BME280;24025;48.138;11.428;2023-08-21T07:44:18;96113.00;;;24.76;56.68
38225;BME280;24025;48.138;11.428;2023-08-21T07:46:50;96123.53;;;24.86;55.61
38225;BME280;24025;48.138;11.428;2023-08-21T07:49:22;96115.13;;;24.94;55.64
38225;BME280;24025;48.138;11.428;2023-08-21T07:51:53;96116.59;;;25.07;56.01
38225;BME280;24025;48.138;11.428;2023-08-21T07:54:25;96117.72;;;25.10;55.09
38225;BME280;24025;48.138;11.428;2023-08-21T07:56:57;96115.75;;;25.10;54.84
38225;BME280;24025;48.138;11.428;2023-08-21T07:59:29;96121.72;;;25.18;54.39
38225;BME280;24025;48.138;11.428;2023-08-21T08:02:00;96120.56;;;25.28;54.87
38225;BME280;24025;48.138;11.428;2023-08-21T08:04:32;96121.19;;;25.32;54.36
38225;BME280;24025;48.138;11.428;2023-08-21T08:07:04;96114.94;;;25.45;54.86
38225;BME280;24025;48.138;11.428;2023-08-21T08:09:36;96120.75;;;25.56;54.40
38225;BME280;24025;48.138;11.428;2023-08-21T08:12:07;96118.09;;;25.65;53.90
38225;BME280;24025;48.138;11.428;2023-08-21T08:14:40;96119.47;;;25.69;52.64
38225;BME280;24025;48.138;11.428;2023-08-21T08:17:12;96120.94;;;25.83;53.35
38225;BME280;24025;48.138;11.428;2023-08-21T08:19:44;96119.31;;;25.95;53.65
38225;BME280;24025;48.138;11.428;2023-08-21T08:22:16;96121.03;;;26.02;52.06
38225;BME280;24025;48.138;11.428;2023-08-21T08:24:47;96115.75;;;26.07;51.67
38225;BME280;24025;48.138;11.428;2023-08-21T08:27:19;96116.66;;;26.13;51.20
38225;BME280;24025;48.138;11.428;2023-08-21T08:29:51;96116.56;;;26.26;50.41
38225;BME280;24025;48.138;11.428;2023-08-21T08:32:23;96113.84;;;26.35;50.93
38225;BME280;24025;48.138;11.428;2023-08-21T08:34:55;96118.75;;;26.40;49.22
38225;BME280;24025;48.138;11.428;2023-08-21T08:37:27;96122.44;;;26.56;49.62
38225;BME280;24025;48.138;11.428;2023-08-21T08:39:59;96117.63;;;26.69;49.72
38225;BME280;24025;48.138;11.428;2023-08-21T08:42:30;96114.13;;;26.77;47.85
38225;BME280;24025;48.138;11.428;2023-08-21T08:45:03;96113.97;;;26.90;48.25
38225;BME280;24025;48.138;11.428;2023-08-21T08:47:35;96112.66;;;27.04;48.75
38225;BME280;24025;48.138;11.428;2023-08-21T08:50:08;96111.75;;;27.16;47.53
38225;BME280;24025;48.138;11.428;2023-08-21T08:52:42;96111.13;;;27.30;47.65
38225;BME280;24025;48.138;11.428;2023-08-21T08:55:14;96121.91;;;27.43;47.39
38225;BME280;24025;48.138;11.428;2023-08-21T08:57:46;96121.44;;;27.54;46.27
38225;BME280;24025;48.138;11.428;2023-08-21T09:00:18;96124.03;;;27.67;46.93
38225;BME280;24025;48.138;11.428;2023-08-21T09:02:49;96119.41;;;27.82;46.81
38225;BME280;24025;48.138;11.428;2023-08-21T09:05:23;96113.59;;;27.89;45.12
38225;BME280;24025;48.138;11.428;2023-08-21T09:08:14;96119.53;;;27.97;45.91
38225;BME280;24025;48.138;11.428;2023-08-21T09:10:45;96119.16;;;28.13;45.75
38225;BME280;24025;48.138;11.428;2023-08-21T09:13:17;96117.28;;;28.28;44.93
38225;BME280;24025;48.138;11.428;2023-08-21T09:15:54;96117.28;;;28.28;44.86
38225;BME280;24025;48.138;11.428;2023-08-21T09:18:26;96121.34;;;28.42;44.45
38225;BME280;24025;48.138;11.428;2023-08-21T09:20:58;96115.84;;;28.42;42.98
38225;BME280;24025;48.138;11.428;2023-08-21T09:23:33;96114.06;;;28.63;44.90
38225;BME280;24025;48.138;11.428;2023-08-21T09:26:04;96124.09;;;28.66;44.30
38225;BME280;24025;48.138;11.428;2023-08-21T09:28:37;96115.16;;;28.80;44.34
38225;BME280;24025;48.138;11.428;2023-08-21T09:31:10;96117.38;;;28.67;44.20
38225;BME280;24025;48.138;11.428;2023-08-21T09:33:42;96114.22;;;28.83;44.54
38225;BME280;24025;48.138;11.428;2023-08-21T09:36:16;96120.28;;;28.87;44.32
38225;BME280;24025;48.138;11.428;2023-08-21T09:38:48;96109.28;;;28.96;44.42
38225;BME280;24025;48.138;11.428;2023-08-21T09:41:20;96107.31;;;29.12;43.48
38225;BME280;24025;48.138;11.428;2023-08-21T09:43:52;96115.91;;;29.04;43.90
38225;BME280;24025;48.138;11.428;2023-08-21T09:46:24;96106.56;;;29.11;43.38
38225;BME280;24025;48.138;11.428;2023-08-21T09:48:56;96111.88;;;29.15;42.18
38225;BME280;24025;48.138;11.428;2023-08-21T09:51:28;96099.59;;;29.40;42.20
38225;BME280;24025;48.138;11.428;2023-08-21T09:54:02;96099.31;;;29.38;40.64
38225;BME280;24025;48.138;11.428;2023-08-21T09:56:35;96105.03;;;29.49;41.14
38225;BME280;24025;48.138;11.428;2023-08-21T09:59:08;96104.28;;;29.63;40.84
38225;BME280;24025;48.138;11.428;2023-08-21T10:01:40;96096.81;;;29.78;41.31
38225;BME280;24025;48.138;11.428;2023-08-21T10:04:13;96093.84;;;29.82;41.64
38225;BME280;24025;48.138;11.428;2023-08-21T10:06:45;96086.97;;;30.07;40.97
38225;BME280;24025;48.138;11.428;2023-08-21T10:09:18;96086.38;;;30.32;41.04
38225;BME280;24025;48.138;11.428;2023-08-21T10:11:51;96087.66;;;30.52;40.88
38225;BME280;24025;48.138;11.428;2023-08-21T10:14:23;96087.28;;;30.64;39.13
38225;BME280;24025;48.138;11.428;2023-08-21T10:16:55;96084.50;;;30.59;39.29
38225;BME280;24025;48.138;11.428;2023-08-21T10:19:31;96085.78;;;30.63;39.68
38225;BME280;24025;48.138;11.428;2023-08-21T10:22:03;96079.34;;;30.87;41.06
38225;BME280;24025;48.138;11.428;2023-08-21T10:24:35;96081.94;;;30.96;38.90
38225;BME280;24025;48.138;11.428;2023-08-21T10:27:11;96078.13;;;31.14;39.28
38225;BME280;24025;48.138;11.428;2023-08-21T10:29:56;96085.03;;;31.24;38.93
38225;BME280;24025;48.138;11.428;2023-08-21T10:32:28;96083.38;;;31.12;38.52
38225;BME280;24025;48.138;11.428;2023-08-21T10:35:00;96082.94;;;30.93;38.66
38225;BME280;24025;48.138;11.428;2023-08-21T10:37:31;96083.25;;;31.00;37.86
38225;BME280;24025;48.138;11.428;2023-08-21T10:40:03;96082.94;;;30.93;37.37
38225;BME280;24025;48.138;11.428;2023-08-21T10:42:39;96081.38;;;30.92;38.80
38225;BME280;24025;48.138;11.428;2023-08-21T10:45:14;96074.59;;;30.87;39.48
38225;BME280;24025;48.138;11.428;2023-08-21T10:47:45;96072.78;;;31.05;38.57
38225;BME280;24025;48.138;11.428;2023-08-21T10:50:18;96075.16;;;31.17;39.48
38225;BME280;24025;48.138;11.428;2023-08-21T10:52:52;96076.28;;;31.25;38.60
38225;BME280;24025;48.138;11.428;2023-08-21T10:55:24;96081.59;;;31.55;39.28
38225;BME280;24025;48.138;11.428;2023-08-21T10:57:56;96077.66;;;31.67;37.93
38225;BME280;24025;48.138;11.428;2023-08-21T11:00:27;96081.88;;;31.89;38.38
38225;BME280;24025;48.138;11.428;2023-08-21T11:02:58;96072.06;;;31.56;37.45
38225;BME280;24025;48.138;11.428;2023-08-21T11:05:30;96079.53;;;31.76;38.08
38225;BME280;24025;48.138;11.428;2023-08-21T11:08:02;96077.47;;;31.45;36.99
38225;BME280;24025;48.138;11.428;2023-08-21T11:10:34;96085.38;;;31.89;38.33
38225;BME280;24025;48.138;11.428;2023-08-21T11:13:06;96086.19;;;31.95;36.53
38225;BME280;24025;48.138;11.428;2023-08-21T11:15:38;96086.13;;;31.84;37.32
38225;BME280;24025;48.138;11.428;2023-08-21T11:18:10;96093.31;;;32.07;36.19
38225;BME280;24025;48.138;11.428;2023-08-21T11:20:42;96085.88;;;32.19;36.04
38225;BME280;24025;48.138;11.428;2023-08-21T11:23:14;96086.13;;;32.21;35.82
38225;BME280;24025;48.138;11.428;2023-08-21T11:25:47;96087.63;;;32.17;36.42
38225;BME280;24025;48.138;11.428;2023-08-21T11:28:19;96087.25;;;31.72;36.87
38225;BME280;24025;48.138;11.428;2023-08-21T11:30:51;96081.78;;;31.77;36.61
38225;BME280;24025;48.138;11.428;2023-08-21T11:33:23;96086.66;;;32.25;36.81
38225;BME280;24025;48.138;11.428;2023-08-21T11:35:56;96081.78;;;32.46;36.57
38225;BME280;24025;48.138;11.428;2023-08-21T11:38:28;96081.44;;;32.33;36.45
38225;BME280;24025;48.138;11.428;2023-08-21T11:41:01;96085.41;;;32.26;37.16
38225;BME280;24025;48.138;11.428;2023-08-21T11:43:38;96073.81;;;32.17;36.55
38225;BME280;24025;48.138;11.428;2023-08-21T11:46:10;96077.19;;;32.32;36.63
38225;BME280;24025;48.138;11.428;2023-08-21T11:48:42;96080.75;;;32.06;36.86
38225;BME280;24025;48.138;11.428;2023-08-21T11:51:15;96075.47;;;32.40;36.98
38225;BME280;24025;48.138;11.428;2023-08-21T11:53:47;96070.88;;;32.74;35.96
38225;BME280;24025;48.138;11.428;2023-08-21T11:56:20;96068.50;;;33.10;35.39
38225;BME280;24025;48.138;11.428;2023-08-21T11:58:55;96067.34;;;32.74;35.20
38225;BME280;24025;48.138;11.428;2023-08-21T12:01:26;96061.47;;;33.20;35.01
38225;BME280;24025;48.138;11.428;2023-08-21T12:03:58;96061.53;;;33.31;35.65
38225;BME280;24025;48.138;11.428;2023-08-21T12:06:30;96059.78;;;33.56;34.96
38225;BME280;24025;48.138;11.428;2023-08-21T12:09:04;96052.75;;;33.55;34.01
38225;BME280;24025;48.138;11.428;2023-08-21T12:11:36;96064.50;;;33.16;33.59
38225;BME280;24025;48.138;11.428;2023-08-21T12:14:09;96057.78;;;33.51;34.34
38225;BME280;24025;48.138;11.428;2023-08-21T12:16:41;96054.53;;;33.64;34.29
38225;BME280;24025;48.138;11.428;2023-08-21T12:19:12;96050.03;;;33.94;33.56
38225;BME280;24025;48.138;11.428;2023-08-21T12:21:45;96053.78;;;34.02;33.07
38225;BME280;24025;48.138;11.428;2023-08-21T12:24:17;96062.09;;;33.58;31.98
38225;BME280;24025;48.138;11.428;2023-08-21T12:26:49;96044.44;;;34.17;32.79
38225;BME280;24025;48.138;11.428;2023-08-21T12:29:22;96048.47;;;34.16;32.50
38225;BME280;24025;48.138;11.428;2023-08-21T12:31:53;96051.00;;;33.58;32.97
38225;BME280;24025;48.138;11.428;2023-08-21T12:34:25;96042.47;;;33.61;32.85
38225;BME280;24025;48.138;11.428;2023-08-21T12:36:57;96040.44;;;33.45;32.62
38225;BME280;24025;48.138;11.428;2023-08-21T12:39:29;96038.19;;;33.77;32.44
38225;BME280;24025;48.138;11.428;2023-08-21T12:42:00;96038.94;;;34.00;32.14
38225;BME280;24025;48.138;11.428;2023-08-21T12:44:32;96042.97;;;34.04;32.42
38225;BME280;24025;48.138;11.428;2023-08-21T12:47:08;96032.59;;;34.22;32.18
38225;BME280;24025;48.138;11.428;2023-08-21T12:49:40;96024.75;;;34.48;31.77
38225;BME280;24025;48.138;11.428;2023-08-21T12:52:13;96029.69;;;34.72;31.56
38225;BME280;24025;48.138;11.428;2023-08-21T12:54:44;96028.56;;;34.40;31.74
38225;BME280;24025;48.138;11.428;2023-08-21T12:57:16;96029.13;;;33.93;32.26
38225;BME280;24025;48.138;11.428;2023-08-21T12:59:48;96026.09;;;33.91;32.84
38225;BME280;24025;48.138;11.428;2023-08-21T13:02:19;96019.97;;;34.32;32.30
38225;BME280;24025;48.138;11.428;2023-08-21T13:04:51;96019.72;;;34.47;32.64
38225;BME280;24025;48.138;11.428;2023-08-21T13:07:23;96013.16;;;34.50;32.58
38225;BME280;24025;48.138;11.428;2023-08-21T13:09:55;96018.47;;;34.42;32.47
38225;BME280;24025;48.138;11.428;2023-08-21T13:12:26;96014.97;;;34.30;32.36
38225;BME280;24025;48.138;11.428;2023-08-21T13:14:58;96012.00;;;34.12;32.05
38225;BME280;24025;48.138;11.428;2023-08-21T13:17:30;96019.16;;;34.59;32.02
38225;BME280;24025;48.138;11.428;2023-08-21T13:20:03;96008.19;;;34.89;32.17
38225;BME280;24025;48.138;11.428;2023-08-21T13:22:48;96009.81;;;35.15;31.84